Terminal Aerodrome Forecast
Issued by NWS Blacksburg, VA

Current Version | Previous Version | Text Only | Print | Product List | Glossary Off
Versions: 1 2 3 4 5 6 7 8 9 10 11 12 13 14 15 16 17 18 19 20 21 22 23 24

000
FTUS41 KRNK 290526
TAFBLF
TAF
KBLF 290526Z 2906/3006 30005KT P6SM BKN009
     FM290700 33004KT P6SM BKN003
     FM291300 VRB03KT P6SM BKN015
     FM291500 08004KT P6SM SCT025
     FM300500 12005KT P6SM SCT015=

USA.gov is the U.S. government's official web portal to all federal, state and local government web resources and services.